sensor_id;sensor_type;location;lat;lon;timestamp;P1;durP1;ratioP1;P2;durP2;ratioP2
26080;SDS011;13991;51.174;4.438;2023-04-07T00:00:27;15.90;;;5.40;;
26080;SDS011;13991;51.174;4.438;2023-04-07T00:02:53;21.50;;;6.60;;
26080;SDS011;13991;51.174;4.438;2023-04-07T00:05:19;16.27;;;5.30;;
26080;SDS011;13991;51.174;4.438;2023-04-07T00:07:45;24.13;;;6.07;;
26080;SDS011;13991;51.174;4.438;2023-04-07T00:10:11;15.33;;;6.27;;
26080;SDS011;13991;51.174;4.438;2023-04-07T00:12:37;30.13;;;7.03;;
26080;SDS011;13991;51.174;4.438;2023-04-07T00:15:02;20.23;;;7.20;;
26080;SDS011;13991;51.174;4.438;2023-04-07T00:17:28;25.07;;;8.53;;
26080;SDS011;13991;51.174;4.438;2023-04-07T00:19:54;29.03;;;7.90;;
26080;SDS011;13991;51.174;4.438;2023-04-07T00:22:19;26.77;;;8.37;;
26080;SDS011;13991;51.174;4.438;2023-04-07T00:24:46;31.00;;;8.30;;
26080;SDS011;13991;51.174;4.438;2023-04-07T00:27:12;28.73;;;8.93;;
26080;SDS011;13991;51.174;4.438;2023-04-07T00:29:37;38.30;;;10.20;;
26080;SDS011;13991;51.174;4.438;2023-04-07T00:32:03;34.10;;;10.27;;
26080;SDS011;13991;51.174;4.438;2023-04-07T00:34:28;36.77;;;11.93;;
26080;SDS011;13991;51.174;4.438;2023-04-07T00:36:54;43.70;;;12.83;;
26080;SDS011;13991;51.174;4.438;2023-04-07T00:39:20;31.70;;;12.70;;
26080;SDS011;13991;51.174;4.438;2023-04-07T00:41:46;43.77;;;13.87;;
26080;SDS011;13991;51.174;4.438;2023-04-07T00:44:12;42.07;;;12.13;;
26080;SDS011;13991;51.174;4.438;2023-04-07T00:46:38;39.57;;;12.60;;
26080;SDS011;13991;51.174;4.438;2023-04-07T00:49:03;35.03;;;11.73;;
26080;SDS011;13991;51.174;4.438;2023-04-07T00:51:30;33.87;;;11.70;;
26080;SDS011;13991;51.174;4.438;2023-04-07T00:53:56;30.17;;;9.43;;
26080;SDS011;13991;51.174;4.438;2023-04-07T00:56:22;28.97;;;9.43;;
26080;SDS011;13991;51.174;4.438;2023-04-07T00:58:48;30.03;;;10.47;;
26080;SDS011;13991;51.174;4.438;2023-04-07T01:04:06;32.73;;;10.27;;
26080;SDS011;13991;51.174;4.438;2023-04-07T01:06:37;25.20;;;9.93;;
26080;SDS011;13991;51.174;4.438;2023-04-07T01:09:13;28.00;;;9.43;;
26080;SDS011;13991;51.174;4.438;2023-04-07T01:11:45;32.83;;;9.50;;
26080;SDS011;13991;51.174;4.438;2023-04-07T01:14:20;28.97;;;9.53;;
26080;SDS011;13991;51.174;4.438;2023-04-07T01:16:50;32.93;;;9.70;;
26080;SDS011;13991;51.174;4.438;2023-04-07T01:21:47;38.53;;;9.87;;
26080;SDS011;13991;51.174;4.438;2023-04-07T01:30:03;43.50;;;11.90;;
26080;SDS011;13991;51.174;4.438;2023-04-07T01:32:33;28.70;;;11.07;;
26080;SDS011;13991;51.174;4.438;2023-04-07T01:35:00;27.67;;;11.50;;
26080;SDS011;13991;51.174;4.438;2023-04-07T01:37:28;39.07;;;12.43;;
26080;SDS011;13991;51.174;4.438;2023-04-07T01:39:56;32.33;;;12.40;;
26080;SDS011;13991;51.174;4.438;2023-04-07T01:42:21;33.27;;;13.13;;
26080;SDS011;13991;51.174;4.438;2023-04-07T01:44:48;35.50;;;13.90;;
26080;SDS011;13991;51.174;4.438;2023-04-07T01:47:15;35.37;;;12.03;;
26080;SDS011;13991;51.174;4.438;2023-04-07T01:49:41;31.90;;;12.70;;
26080;SDS011;13991;51.174;4.438;2023-04-07T01:52:09;40.23;;;13.73;;
26080;SDS011;13991;51.174;4.438;2023-04-07T01:54:35;34.97;;;11.90;;
26080;SDS011;13991;51.174;4.438;2023-04-07T01:57:01;37.60;;;13.27;;
26080;SDS011;13991;51.174;4.438;2023-04-07T01:59:27;41.53;;;13.90;;
26080;SDS011;13991;51.174;4.438;2023-04-07T02:01:53;33.00;;;14.20;;
26080;SDS011;13991;51.174;4.438;2023-04-07T02:07:09;49.60;;;15.13;;
26080;SDS011;13991;51.174;4.438;2023-04-07T02:09:43;36.47;;;14.67;;
26080;SDS011;13991;51.174;4.438;2023-04-07T02:12:12;36.43;;;15.90;;
26080;SDS011;13991;51.174;4.438;2023-04-07T02:14:39;41.27;;;16.20;;
26080;SDS011;13991;51.174;4.438;2023-04-07T02:17:07;43.87;;;15.30;;
26080;SDS011;13991;51.174;4.438;2023-04-07T02:19:33;43.50;;;16.17;;
26080;SDS011;13991;51.174;4.438;2023-04-07T02:22:01;43.50;;;17.47;;
26080;SDS011;13991;51.174;4.438;2023-04-07T02:24:28;48.43;;;18.00;;
26080;SDS011;13991;51.174;4.438;2023-04-07T02:26:54;45.40;;;16.70;;
26080;SDS011;13991;51.174;4.438;2023-04-07T02:29:20;52.07;;;19.03;;
26080;SDS011;13991;51.174;4.438;2023-04-07T02:31:46;53.23;;;17.10;;
26080;SDS011;13991;51.174;4.438;2023-04-07T02:34:11;50.10;;;18.13;;
26080;SDS011;13991;51.174;4.438;2023-04-07T02:36:37;53.57;;;18.47;;
26080;SDS011;13991;51.174;4.438;2023-04-07T02:39:02;54.23;;;19.60;;
26080;SDS011;13991;51.174;4.438;2023-04-07T02:41:28;58.70;;;18.97;;
26080;SDS011;13991;51.174;4.438;2023-04-07T02:43:54;52.50;;;19.67;;
26080;SDS011;13991;51.174;4.438;2023-04-07T02:46:20;60.80;;;19.53;;
26080;SDS011;13991;51.174;4.438;2023-04-07T02:48:45;54.20;;;20.13;;
26080;SDS011;13991;51.174;4.438;2023-04-07T02:51:11;47.90;;;18.97;;
26080;SDS011;13991;51.174;4.438;2023-04-07T02:53:37;52.07;;;21.63;;
26080;SDS011;13991;51.174;4.438;2023-04-07T02:56:02;61.90;;;21.90;;
26080;SDS011;13991;51.174;4.438;2023-04-07T02:58:28;59.70;;;20.63;;
26080;SDS011;13991;51.174;4.438;2023-04-07T03:00:54;64.10;;;21.57;;
26080;SDS011;13991;51.174;4.438;2023-04-07T03:03:20;59.97;;;20.97;;
26080;SDS011;13991;51.174;4.438;2023-04-07T03:05:45;67.63;;;20.63;;
26080;SDS011;13991;51.174;4.438;2023-04-07T03:08:11;48.80;;;20.23;;
26080;SDS011;13991;51.174;4.438;2023-04-07T03:10:36;57.33;;;23.43;;
26080;SDS011;13991;51.174;4.438;2023-04-07T03:13:02;59.87;;;22.33;;
26080;SDS011;13991;51.174;4.438;2023-04-07T03:15:28;50.57;;;20.47;;
26080;SDS011;13991;51.174;4.438;2023-04-07T03:17:53;54.20;;;23.70;;
26080;SDS011;13991;51.174;4.438;2023-04-07T03:20:19;57.17;;;21.47;;
26080;SDS011;13991;51.174;4.438;2023-04-07T03:22:45;55.50;;;21.03;;
26080;SDS011;13991;51.174;4.438;2023-04-07T03:25:11;58.17;;;21.20;;
26080;SDS011;13991;51.174;4.438;2023-04-07T03:27:37;48.73;;;20.43;;
26080;SDS011;13991;51.174;4.438;2023-04-07T03:30:03;43.17;;;20.00;;
26080;SDS011;13991;51.174;4.438;2023-04-07T03:32:29;70.27;;;23.57;;
26080;SDS011;13991;51.174;4.438;2023-04-07T03:34:54;50.30;;;19.47;;
26080;SDS011;13991;51.174;4.438;2023-04-07T03:37:21;54.30;;;19.87;;
26080;SDS011;13991;51.174;4.438;2023-04-07T03:39:46;47.40;;;19.27;;
26080;SDS011;13991;51.174;4.438;2023-04-07T03:42:12;56.40;;;19.90;;
26080;SDS011;13991;51.174;4.438;2023-04-07T03:44:38;43.93;;;18.40;;
26080;SDS011;13991;51.174;4.438;2023-04-07T03:47:04;50.03;;;18.97;;
26080;SDS011;13991;51.174;4.438;2023-04-07T03:49:29;51.60;;;19.20;;
26080;SDS011;13991;51.174;4.438;2023-04-07T03:51:55;43.83;;;16.43;;
26080;SDS011;13991;51.174;4.438;2023-04-07T03:54:21;52.30;;;17.10;;
26080;SDS011;13991;51.174;4.438;2023-04-07T03:56:47;42.90;;;17.43;;
26080;SDS011;13991;51.174;4.438;2023-04-07T03:59:13;45.50;;;16.50;;
26080;SDS011;13991;51.174;4.438;2023-04-07T04:01:39;41.03;;;16.90;;
26080;SDS011;13991;51.174;4.438;2023-04-07T04:04:04;49.20;;;16.87;;
26080;SDS011;13991;51.174;4.438;2023-04-07T04:06:30;42.17;;;16.33;;
26080;SDS011;13991;51.174;4.438;2023-04-07T04:08:56;35.20;;;14.70;;
26080;SDS011;13991;51.174;4.438;2023-04-07T04:11:21;41.73;;;14.97;;
26080;SDS011;13991;51.174;4.438;2023-04-07T04:13:47;37.57;;;14.27;;
26080;SDS011;13991;51.174;4.438;2023-04-07T04:16:13;37.70;;;14.20;;
26080;SDS011;13991;51.174;4.438;2023-04-07T04:18:39;49.07;;;14.80;;
26080;SDS011;13991;51.174;4.438;2023-04-07T04:21:05;41.07;;;14.03;;
26080;SDS011;13991;51.174;4.438;2023-04-07T04:23:31;35.03;;;13.97;;
26080;SDS011;13991;51.174;4.438;2023-04-07T04:25:56;34.73;;;13.00;;
26080;SDS011;13991;51.174;4.438;2023-04-07T04:28:24;44.70;;;13.83;;
26080;SDS011;13991;51.174;4.438;2023-04-07T04:30:50;38.87;;;13.23;;
26080;SDS011;13991;51.174;4.438;2023-04-07T04:33:15;32.20;;;11.93;;
26080;SDS011;13991;51.174;4.438;2023-04-07T04:35:41;37.47;;;11.90;;
26080;SDS011;13991;51.174;4.438;2023-04-07T04:38:07;39.60;;;13.53;;
26080;SDS011;13991;51.174;4.438;2023-04-07T04:40:32;36.60;;;13.97;;
26080;SDS011;13991;51.174;4.438;2023-04-07T04:42:58;32.10;;;12.27;;
26080;SDS011;13991;51.174;4.438;2023-04-07T04:45:24;46.33;;;13.57;;
26080;SDS011;13991;51.174;4.438;2023-04-07T04:47:50;38.00;;;12.77;;
26080;SDS011;13991;51.174;4.438;2023-04-07T04:50:15;28.17;;;12.43;;
26080;SDS011;13991;51.174;4.438;2023-04-07T04:52:41;35.07;;;12.60;;
26080;SDS011;13991;51.174;4.438;2023-04-07T04:55:07;42.47;;;13.23;;
26080;SDS011;13991;51.174;4.438;2023-04-07T04:57:33;31.90;;;12.00;;
26080;SDS011;13991;51.174;4.438;2023-04-07T05:00:00;31.03;;;12.67;;
26080;SDS011;13991;51.174;4.438;2023-04-07T05:02:26;32.60;;;12.73;;
26080;SDS011;13991;51.174;4.438;2023-04-07T05:04:52;40.43;;;12.90;;
26080;SDS011;13991;51.174;4.438;2023-04-07T05:07:17;38.97;;;12.27;;
26080;SDS011;13991;51.174;4.438;2023-04-07T05:09:43;40.13;;;13.17;;
26080;SDS011;13991;51.174;4.438;2023-04-07T05:12:09;38.57;;;12.87;;
26080;SDS011;13991;51.174;4.438;2023-04-07T05:14:34;42.80;;;13.97;;
26080;SDS011;13991;51.174;4.438;2023-04-07T05:17:00;34.23;;;14.13;;
26080;SDS011;13991;51.174;4.438;2023-04-07T05:19:26;46.63;;;15.37;;
26080;SDS011;13991;51.174;4.438;2023-04-07T05:21:53;40.47;;;14.83;;
26080;SDS011;13991;51.174;4.438;2023-04-07T05:24:19;43.60;;;15.03;;
26080;SDS011;13991;51.174;4.438;2023-04-07T05:26:45;35.30;;;13.53;;
26080;SDS011;13991;51.174;4.438;2023-04-07T05:29:10;42.47;;;14.67;;
26080;SDS011;13991;51.174;4.438;2023-04-07T05:31:36;48.20;;;17.17;;
26080;SDS011;13991;51.174;4.438;2023-04-07T05:34:02;52.10;;;16.07;;
26080;SDS011;13991;51.174;4.438;2023-04-07T05:36:27;43.97;;;17.50;;
26080;SDS011;13991;51.174;4.438;2023-04-07T05:38:53;38.97;;;15.63;;
26080;SDS011;13991;51.174;4.438;2023-04-07T05:41:19;37.23;;;13.67;;
26080;SDS011;13991;51.174;4.438;2023-04-07T05:43:45;42.00;;;14.17;;
26080;SDS011;13991;51.174;4.438;2023-04-07T05:46:10;36.87;;;13.60;;
26080;SDS011;13991;51.174;4.438;2023-04-07T05:48:36;47.87;;;14.43;;
26080;SDS011;13991;51.174;4.438;2023-04-07T05:51:02;37.07;;;14.43;;
26080;SDS011;13991;51.174;4.438;2023-04-07T05:53:27;31.40;;;12.43;;
26080;SDS011;13991;51.174;4.438;2023-04-07T05:55:53;39.13;;;13.77;;
26080;SDS011;13991;51.174;4.438;2023-04-07T05:58:19;37.87;;;13.03;;
26080;SDS011;13991;51.174;4.438;2023-04-07T06:00:44;33.67;;;12.63;;
26080;SDS011;13991;51.174;4.438;2023-04-07T06:03:10;45.47;;;13.30;;
26080;SDS011;13991;51.174;4.438;2023-04-07T06:05:36;40.73;;;13.30;;
26080;SDS011;13991;51.174;4.438;2023-04-07T06:08:01;38.83;;;12.40;;
26080;SDS011;13991;51.174;4.438;2023-04-07T06:10:27;37.30;;;13.77;;
26080;SDS011;13991;51.174;4.438;2023-04-07T06:12:53;37.23;;;13.27;;
26080;SDS011;13991;51.174;4.438;2023-04-07T06:15:18;35.43;;;13.30;;
26080;SDS011;13991;51.174;4.438;2023-04-07T06:17:44;42.07;;;12.97;;
26080;SDS011;13991;51.174;4.438;2023-04-07T06:20:10;41.30;;;12.30;;
26080;SDS011;13991;51.174;4.438;2023-04-07T06:22:36;35.20;;;13.50;;
26080;SDS011;13991;51.174;4.438;2023-04-07T06:25:03;33.60;;;12.53;;
26080;SDS011;13991;51.174;4.438;2023-04-07T06:27:29;40.97;;;12.87;;
26080;SDS011;13991;51.174;4.438;2023-04-07T06:29:55;28.00;;;11.33;;
26080;SDS011;13991;51.174;4.438;2023-04-07T06:32:20;35.63;;;12.83;;
26080;SDS011;13991;51.174;4.438;2023-04-07T06:34:46;34.47;;;12.17;;
26080;SDS011;13991;51.174;4.438;2023-04-07T06:37:12;29.07;;;10.97;;
26080;SDS011;13991;51.174;4.438;2023-04-07T06:39:37;36.83;;;11.50;;
26080;SDS011;13991;51.174;4.438;2023-04-07T06:42:03;24.07;;;10.57;;
26080;SDS011;13991;51.174;4.438;2023-04-07T06:44:29;29.23;;;8.90;;
26080;SDS011;13991;51.174;4.438;2023-04-07T06:46:55;30.73;;;9.70;;
26080;SDS011;13991;51.174;4.438;2023-04-07T06:49:21;26.43;;;9.30;;
26080;SDS011;13991;51.174;4.438;2023-04-07T06:51:46;21.27;;;8.40;;
26080;SDS011;13991;51.174;4.438;2023-04-07T06:54:12;22.73;;;8.93;;
26080;SDS011;13991;51.174;4.438;2023-04-07T06:56:42;17.73;;;8.07;;
26080;SDS011;13991;51.174;4.438;2023-04-07T06:59:08;22.53;;;8.53;;
26080;SDS011;13991;51.174;4.438;2023-04-07T07:01:34;23.50;;;9.60;;
26080;SDS011;13991;51.174;4.438;2023-04-07T07:03:59;17.23;;;7.97;;
26080;SDS011;13991;51.174;4.438;2023-04-07T07:06:25;24.20;;;9.70;;
26080;SDS011;13991;51.174;4.438;2023-04-07T07:08:52;20.53;;;9.57;;
26080;SDS011;13991;51.174;4.438;2023-04-07T07:11:17;21.53;;;9.20;;
26080;SDS011;13991;51.174;4.438;2023-04-07T07:13:43;17.30;;;7.60;;
26080;SDS011;13991;51.174;4.438;2023-04-07T07:16:09;14.97;;;5.63;;
26080;SDS011;13991;51.174;4.438;2023-04-07T07:18:36;19.63;;;5.07;;
26080;SDS011;13991;51.174;4.438;2023-04-07T07:21:02;16.90;;;4.60;;
26080;SDS011;13991;51.174;4.438;2023-04-07T07:23:28;16.67;;;4.43;;
26080;SDS011;13991;51.174;4.438;2023-04-07T07:25:54;20.47;;;4.90;;
26080;SDS011;13991;51.174;4.438;2023-04-07T07:28:19;13.37;;;3.80;;
26080;SDS011;13991;51.174;4.438;2023-04-07T07:30:45;12.63;;;4.10;;
26080;SDS011;13991;51.174;4.438;2023-04-07T07:33:11;15.00;;;3.60;;
26080;SDS011;13991;51.174;4.438;2023-04-07T07:35:37;16.13;;;4.37;;
26080;SDS011;13991;51.174;4.438;2023-04-07T07:38:04;12.80;;;3.60;;
26080;SDS011;13991;51.174;4.438;2023-04-07T07:40:30;12.30;;;3.30;;
26080;SDS011;13991;51.174;4.438;2023-04-07T07:42:56;10.77;;;3.20;;
26080;SDS011;13991;51.174;4.438;2023-04-07T07:45:22;18.10;;;2.80;;
26080;SDS011;13991;51.174;4.438;2023-04-07T07:47:48;14.63;;;2.50;;
26080;SDS011;13991;51.174;4.438;2023-04-07T07:50:14;5.63;;;2.63;;
26080;SDS011;13991;51.174;4.438;2023-04-07T07:52:40;14.60;;;2.47;;
26080;SDS011;13991;51.174;4.438;2023-04-07T07:55:06;8.37;;;2.07;;
26080;SDS011;13991;51.174;4.438;2023-04-07T07:57:32;13.27;;;2.40;;
26080;SDS011;13991;51.174;4.438;2023-04-07T07:59:57;9.73;;;2.50;;
26080;SDS011;13991;51.174;4.438;2023-04-07T08:02:23;9.97;;;1.93;;
26080;SDS011;13991;51.174;4.438;2023-04-07T08:04:54;13.17;;;2.57;;
26080;SDS011;13991;51.174;4.438;2023-04-07T08:07:21;8.07;;;2.30;;
26080;SDS011;13991;51.174;4.438;2023-04-07T08:09:46;13.00;;;1.63;;
26080;SDS011;13991;51.174;4.438;2023-04-07T08:12:12;8.57;;;1.93;;
26080;SDS011;13991;51.174;4.438;2023-04-07T08:14:38;13.73;;;1.87;;
26080;SDS011;13991;51.174;4.438;2023-04-07T08:17:03;10.57;;;1.90;;
26080;SDS011;13991;51.174;4.438;2023-04-07T08:19:29;12.73;;;1.77;;
26080;SDS011;13991;51.174;4.438;2023-04-07T08:21:55;10.87;;;2.23;;
26080;SDS011;13991;51.174;4.438;2023-04-07T08:24:21;10.50;;;2.60;;
26080;SDS011;13991;51.174;4.438;2023-04-07T08:26:46;13.43;;;2.17;;
26080;SDS011;13991;51.174;4.438;2023-04-07T08:29:12;12.27;;;1.60;;
26080;SDS011;13991;51.174;4.438;2023-04-07T08:31:38;5.67;;;1.33;;
26080;SDS011;13991;51.174;4.438;2023-04-07T08:34:03;12.07;;;1.60;;
26080;SDS011;13991;51.174;4.438;2023-04-07T08:36:29;10.13;;;2.20;;
26080;SDS011;13991;51.174;4.438;2023-04-07T08:38:55;20.97;;;2.13;;
26080;SDS011;13991;51.174;4.438;2023-04-07T08:41:29;12.37;;;2.30;;
26080;SDS011;13991;51.174;4.438;2023-04-07T08:44:00;4.57;;;1.60;;
26080;SDS011;13991;51.174;4.438;2023-04-07T08:46:27;9.57;;;1.60;;
26080;SDS011;13991;51.174;4.438;2023-04-07T08:48:55;11.70;;;2.03;;
26080;SDS011;13991;51.174;4.438;2023-04-07T08:51:31;13.47;;;1.57;;
26080;SDS011;13991;51.174;4.438;2023-04-07T08:54:18;13.93;;;2.10;;
26080;SDS011;13991;51.174;4.438;2023-04-07T08:56:43;12.47;;;1.90;;
26080;SDS011;13991;51.174;4.438;2023-04-07T08:59:10;10.03;;;1.93;;
26080;SDS011;13991;51.174;4.438;2023-04-07T09:01:37;10.33;;;2.20;;
26080;SDS011;13991;51.174;4.438;2023-04-07T09:04:04;12.83;;;1.80;;
26080;SDS011;13991;51.174;4.438;2023-04-07T09:06:31;7.07;;;1.43;;
26080;SDS011;13991;51.174;4.438;2023-04-07T09:09:00;19.63;;;1.37;;
26080;SDS011;13991;51.174;4.438;2023-04-07T09:11:28;15.03;;;2.07;;
26080;SDS011;13991;51.174;4.438;2023-04-07T09:13:54;14.37;;;1.80;;
26080;SDS011;13991;51.174;4.438;2023-04-07T09:16:20;15.77;;;1.60;;
26080;SDS011;13991;51.174;4.438;2023-04-07T09:18:47;17.57;;;2.27;;
26080;SDS011;13991;51.174;4.438;2023-04-07T09:21:13;12.03;;;1.93;;
26080;SDS011;13991;51.174;4.438;2023-04-07T09:23:40;17.67;;;1.60;;
26080;SDS011;13991;51.174;4.438;2023-04-07T09:28:48;23.90;;;2.33;;
26080;SDS011;13991;51.174;4.438;2023-04-07T09:31:16;14.73;;;2.00;;
26080;SDS011;13991;51.174;4.438;2023-04-07T09:33:42;21.13;;;1.93;;
26080;SDS011;13991;51.174;4.438;2023-04-07T09:36:08;16.57;;;1.70;;
26080;SDS011;13991;51.174;4.438;2023-04-07T09:38:38;19.57;;;2.13;;
26080;SDS011;13991;51.174;4.438;2023-04-07T09:41:05;15.53;;;1.80;;
26080;SDS011;13991;51.174;4.438;2023-04-07T09:43:32;17.33;;;2.07;;
26080;SDS011;13991;51.174;4.438;2023-04-07T09:48:37;22.17;;;3.30;;
26080;SDS011;13991;51.174;4.438;2023-04-07T09:51:04;17.00;;;2.60;;
26080;SDS011;13991;51.174;4.438;2023-04-07T09:56:14;16.20;;;1.87;;
26080;SDS011;13991;51.174;4.438;2023-04-07T09:58:42;22.53;;;2.20;;
26080;SDS011;13991;51.174;4.438;2023-04-07T10:01:10;18.27;;;2.13;;
26080;SDS011;13991;51.174;4.438;2023-04-07T10:03:37;24.10;;;2.57;;
26080;SDS011;13991;51.174;4.438;2023-04-07T10:06:03;24.23;;;2.60;;
26080;SDS011;13991;51.174;4.438;2023-04-07T10:08:40;25.90;;;2.73;;
26080;SDS011;13991;51.174;4.438;2023-04-07T10:11:07;21.27;;;2.80;;
26080;SDS011;13991;51.174;4.438;2023-04-07T10:13:34;15.33;;;2.77;;
26080;SDS011;13991;51.174;4.438;2023-04-07T10:16:04;19.40;;;2.10;;
26080;SDS011;13991;51.174;4.438;2023-04-07T10:18:32;25.67;;;2.47;;
26080;SDS011;13991;51.174;4.438;2023-04-07T10:21:02;11.83;;;1.77;;
26080;SDS011;13991;51.174;4.438;2023-04-07T10:26:19;14.70;;;1.53;;
26080;SDS011;13991;51.174;4.438;2023-04-07T10:28:49;14.47;;;2.20;;
26080;SDS011;13991;51.174;4.438;2023-04-07T10:31:17;16.30;;;2.10;;
26080;SDS011;13991;51.174;4.438;2023-04-07T10:33:51;17.30;;;2.70;;
26080;SDS011;13991;51.174;4.438;2023-04-07T10:36:18;12.20;;;1.70;;
26080;SDS011;13991;51.174;4.438;2023-04-07T10:39:47;16.43;;;1.87;;
26080;SDS011;13991;51.174;4.438;2023-04-07T10:41:42;8.27;;;1.60;;
26080;SDS011;13991;51.174;4.438;2023-04-07T10:44:08;7.70;;;1.50;;
26080;SDS011;13991;51.174;4.438;2023-04-07T10:49:21;7.93;;;1.37;;
26080;SDS011;13991;51.174;4.438;2023-04-07T10:54:37;22.80;;;2.83;;
26080;SDS011;13991;51.174;4.438;2023-04-07T10:57:07;15.87;;;2.60;;
26080;SDS011;13991;51.174;4.438;2023-04-07T10:59:35;25.13;;;2.43;;
26080;SDS011;13991;51.174;4.438;2023-04-07T11:04:41;13.90;;;2.70;;
26080;SDS011;13991;51.174;4.438;2023-04-07T11:07:07;16.23;;;3.70;;
26080;SDS011;13991;51.174;4.438;2023-04-07T11:09:34;19.40;;;2.50;;
26080;SDS011;13991;51.174;4.438;2023-04-07T11:12:00;7.20;;;2.00;;
26080;SDS011;13991;51.174;4.438;2023-04-07T11:14:27;25.83;;;1.93;;
26080;SDS011;13991;51.174;4.438;2023-04-07T11:16:53;20.23;;;1.70;;
26080;SDS011;13991;51.174;4.438;2023-04-07T11:19:20;21.67;;;2.40;;
26080;SDS011;13991;51.174;4.438;2023-04-07T11:21:46;10.53;;;1.87;;
26080;SDS011;13991;51.174;4.438;2023-04-07T11:26:57;18.73;;;2.83;;
26080;SDS011;13991;51.174;4.438;2023-04-07T11:29:32;11.60;;;2.13;;
26080;SDS011;13991;51.174;4.438;2023-04-07T11:31:59;8.83;;;2.20;;
26080;SDS011;13991;51.174;4.438;2023-04-07T11:34:30;12.93;;;2.93;;
26080;SDS011;13991;51.174;4.438;2023-04-07T11:36:57;14.07;;;2.33;;
26080;SDS011;13991;51.174;4.438;2023-04-07T11:39:23;15.73;;;2.07;;
26080;SDS011;13991;51.174;4.438;2023-04-07T11:41:55;20.33;;;2.40;;
26080;SDS011;13991;51.174;4.438;2023-04-07T11:44:21;17.80;;;2.10;;
26080;SDS011;13991;51.174;4.438;2023-04-07T11:46:54;11.53;;;2.10;;
26080;SDS011;13991;51.174;4.438;2023-04-07T11:49:21;12.27;;;2.17;;
26080;SDS011;13991;51.174;4.438;2023-04-07T11:51:56;11.43;;;1.93;;
26080;SDS011;13991;51.174;4.438;2023-04-07T11:54:27;13.40;;;2.13;;
26080;SDS011;13991;51.174;4.438;2023-04-07T11:57:03;11.47;;;2.03;;
26080;SDS011;13991;51.174;4.438;2023-04-07T11:59:29;6.40;;;1.07;;
26080;SDS011;13991;51.174;4.438;2023-04-07T12:01:55;11.73;;;1.07;;
26080;SDS011;13991;51.174;4.438;2023-04-07T12:04:21;5.50;;;1.00;;
26080;SDS011;13991;51.174;4.438;2023-04-07T12:06:47;8.23;;;0.90;;
26080;SDS011;13991;51.174;4.438;2023-04-07T12:11:53;14.20;;;1.40;;
26080;SDS011;13991;51.174;4.438;2023-04-07T12:14:20;7.50;;;1.30;;
26080;SDS011;13991;51.174;4.438;2023-04-07T12:16:45;10.50;;;1.17;;
26080;SDS011;13991;51.174;4.438;2023-04-07T12:19:11;7.50;;;1.27;;
26080;SDS011;13991;51.174;4.438;2023-04-07T12:21:37;10.33;;;1.63;;
26080;SDS011;13991;51.174;4.438;2023-04-07T12:24:03;8.60;;;1.57;;
26080;SDS011;13991;51.174;4.438;2023-04-07T12:26:29;6.60;;;0.80;;
26080;SDS011;13991;51.174;4.438;2023-04-07T12:28:54;7.10;;;1.50;;
26080;SDS011;13991;51.174;4.438;2023-04-07T12:31:22;10.07;;;1.40;;
26080;SDS011;13991;51.174;4.438;2023-04-07T12:33:48;10.83;;;0.70;;
26080;SDS011;13991;51.174;4.438;2023-04-07T12:36:14;7.90;;;1.20;;
26080;SDS011;13991;51.174;4.438;2023-04-07T12:38:40;8.77;;;1.27;;
26080;SDS011;13991;51.174;4.438;2023-04-07T12:41:06;7.83;;;0.87;;
26080;SDS011;13991;51.174;4.438;2023-04-07T12:43:33;6.10;;;0.67;;
26080;SDS011;13991;51.174;4.438;2023-04-07T12:45:59;15.43;;;1.20;;
26080;SDS011;13991;51.174;4.438;2023-04-07T12:48:26;13.47;;;1.10;;
26080;SDS011;13991;51.174;4.438;2023-04-07T12:50:52;4.80;;;1.07;;
26080;SDS011;13991;51.174;4.438;2023-04-07T12:53:17;3.97;;;0.83;;
26080;SDS011;13991;51.174;4.438;2023-04-07T12:55:43;9.10;;;1.50;;
26080;SDS011;13991;51.174;4.438;2023-04-07T12:58:09;7.50;;;1.00;;
26080;SDS011;13991;51.174;4.438;2023-04-07T13:00:34;3.43;;;0.80;;
26080;SDS011;13991;51.174;4.438;2023-04-07T13:03:00;10.67;;;1.20;;
26080;SDS011;13991;51.174;4.438;2023-04-07T13:05:27;9.87;;;1.00;;
26080;SDS011;13991;51.174;4.438;2023-04-07T13:07:53;6.67;;;1.37;;
26080;SDS011;13991;51.174;4.438;2023-04-07T13:10:19;11.43;;;1.13;;
26080;SDS011;13991;51.174;4.438;2023-04-07T13:12:45;1.43;;;0.60;;
26080;SDS011;13991;51.174;4.438;2023-04-07T13:15:11;6.27;;;0.57;;
26080;SDS011;13991;51.174;4.438;2023-04-07T13:17:37;12.50;;;1.00;;
26080;SDS011;13991;51.174;4.438;2023-04-07T13:20:06;5.97;;;1.02;;
26080;SDS011;13991;51.174;4.438;2023-04-07T13:22:32;13.37;;;1.03;;
26080;SDS011;13991;51.174;4.438;2023-04-07T13:24:58;2.30;;;0.80;;
26080;SDS011;13991;51.174;4.438;2023-04-07T13:27:24;6.15;;;0.63;;
26080;SDS011;13991;51.174;4.438;2023-04-07T13:29:49;3.80;;;0.80;;
26080;SDS011;13991;51.174;4.438;2023-04-07T13:32:15;5.80;;;0.80;;
26080;SDS011;13991;51.174;4.438;2023-04-07T13:34:41;6.90;;;0.70;;
26080;SDS011;13991;51.174;4.438;2023-04-07T13:37:08;4.80;;;0.70;;
26080;SDS011;13991;51.174;4.438;2023-04-07T13:39:34;5.03;;;0.57;;
26080;SDS011;13991;51.174;4.438;2023-04-07T13:41:59;6.97;;;0.50;;
26080;SDS011;13991;51.174;4.438;2023-04-07T13:44:25;9.03;;;0.97;;
26080;SDS011;13991;51.174;4.438;2023-04-07T13:46:52;4.23;;;0.80;;
26080;SDS011;13991;51.174;4.438;2023-04-07T13:49:18;9.20;;;0.70;;
26080;SDS011;13991;51.174;4.438;2023-04-07T13:51:44;7.27;;;0.67;;
26080;SDS011;13991;51.174;4.438;2023-04-07T13:54:10;4.67;;;0.70;;
26080;SDS011;13991;51.174;4.438;2023-04-07T13:56:36;10.80;;;0.87;;
26080;SDS011;13991;51.174;4.438;2023-04-07T13:59:05;6.50;;;1.10;;
26080;SDS011;13991;51.174;4.438;2023-04-07T14:01:31;11.70;;;1.20;;
26080;SDS011;13991;51.174;4.438;2023-04-07T14:03:59;16.47;;;1.63;;
26080;SDS011;13991;51.174;4.438;2023-04-07T14:06:26;8.23;;;0.90;;
26080;SDS011;13991;51.174;4.438;2023-04-07T14:08:52;16.60;;;1.17;;
26080;SDS011;13991;51.174;4.438;2023-04-07T14:11:18;9.90;;;1.37;;
26080;SDS011;13991;51.174;4.438;2023-04-07T14:13:46;6.37;;;1.10;;
26080;SDS011;13991;51.174;4.438;2023-04-07T14:16:12;3.87;;;0.60;;
26080;SDS011;13991;51.174;4.438;2023-04-07T14:18:38;9.17;;;0.90;;
26080;SDS011;13991;51.174;4.438;2023-04-07T14:21:04;9.50;;;1.23;;
26080;SDS011;13991;51.174;4.438;2023-04-07T14:23:30;10.00;;;1.50;;
26080;SDS011;13991;51.174;4.438;2023-04-07T14:26:29;11.43;;;1.50;;
26080;SDS011;13991;51.174;4.438;2023-04-07T14:28:48;10.47;;;2.23;;
26080;SDS011;13991;51.174;4.438;2023-04-07T14:31:14;8.07;;;0.90;;
26080;SDS011;13991;51.174;4.438;2023-04-07T14:33:43;10.10;;;1.27;;
26080;SDS011;13991;51.174;4.438;2023-04-07T14:36:10;15.63;;;1.93;;
26080;SDS011;13991;51.174;4.438;2023-04-07T14:38:38;21.63;;;1.97;;
26080;SDS011;13991;51.174;4.438;2023-04-07T14:41:03;16.60;;;1.60;;
26080;SDS011;13991;51.174;4.438;2023-04-07T14:43:29;12.87;;;2.10;;
26080;SDS011;13991;51.174;4.438;2023-04-07T14:45:55;17.33;;;1.93;;
26080;SDS011;13991;51.174;4.438;2023-04-07T14:48:21;10.73;;;1.20;;
26080;SDS011;13991;51.174;4.438;2023-04-07T14:50:47;14.03;;;1.23;;
26080;SDS011;13991;51.174;4.438;2023-04-07T14:53:13;12.60;;;1.40;;
26080;SDS011;13991;51.174;4.438;2023-04-07T14:55:40;13.30;;;1.00;;
26080;SDS011;13991;51.174;4.438;2023-04-07T14:58:06;8.77;;;1.27;;
26080;SDS011;13991;51.174;4.438;2023-04-07T15:00:32;11.27;;;1.10;;
26080;SDS011;13991;51.174;4.438;2023-04-07T15:02:58;9.17;;;1.13;;
26080;SDS011;13991;51.174;4.438;2023-04-07T15:05:24;18.97;;;1.37;;